Portada
METAR-TAF:

METAR-TAF

Aeroports :

Tientsin, Xina

latitud: 39-11N, longitud: 117-21E, altitud: 3 m

Observació

L'informe es va fer fa 35 minuts, a les 09:00 UTC
Vent 2 kt del Oest
Temperatura 17°C
Humitat 32%
Pressió 1017 hPa
Visibilitat: 5000 m
calitja

METAR: ZBTJ 310900Z 28001MPS 5000 HZ NSC 17/M00 Q1017 NOSIG

Hora: 17:35 (09:35 UTC)

Pronòstic

L'informe es va fer fa 6 hores i 33 minuts, a les 03:02 UTC
Pronòstic vàlid del 31 a les 06 UTC al 01 a les 06 UTC
Vent 8 kt del Nord/Nord-Oest
Visibilitat: 5000 m
calitja

TAF: ZBTJ 310302Z 3106/0106 33004MPS 5000 HZ NSC TX19/3107Z TN07/3122Z

Observacions i pronòstics meteorològics de més de 4000 aeroports (METAR i TAF).

Les estacions disponibles són els punts grocs i vermells al mapa.

Posi el ratolí al punt desitjat per veure el nom de l'estació.

Feu clic per veure les observacions i els pronòstics meteorològics.

Per canviar el mapa: feu clic els botons verds amb una creu de color negre per apropar; al botó verd amb un guió per allunyar la imatge; o en les fletxes verdes per a mapes adjacents.


METAR-TAF: